sensor_id;sensor_type;location;lat;lon;timestamp;P1;durP1;ratioP1;P2;durP2;ratioP2
14858;SDS011;7521;51.700;6.874;2024-02-15T00:00:32;18.43;;;12.47;;
14858;SDS011;7521;51.700;6.874;2024-02-15T00:03:38;14.67;;;12.53;;
14858;SDS011;7521;51.700;6.874;2024-02-15T00:06:43;17.80;;;13.35;;
14858;SDS011;7521;51.700;6.874;2024-02-15T00:09:48;16.05;;;12.38;;
14858;SDS011;7521;51.700;6.874;2024-02-15T00:12:53;20.00;;;13.07;;
14858;SDS011;7521;51.700;6.874;2024-02-15T00:15:59;19.67;;;13.60;;
14858;SDS011;7521;51.700;6.874;2024-02-15T00:19:05;16.80;;;13.50;;
14858;SDS011;7521;51.700;6.874;2024-02-15T00:22:11;16.97;;;11.90;;
14858;SDS011;7521;51.700;6.874;2024-02-15T00:25:18;17.97;;;12.00;;
14858;SDS011;7521;51.700;6.874;2024-02-15T00:28:24;16.43;;;12.83;;
14858;SDS011;7521;51.700;6.874;2024-02-15T00:31:31;18.63;;;13.27;;
14858;SDS011;7521;51.700;6.874;2024-02-15T00:34:37;19.57;;;13.07;;
14858;SDS011;7521;51.700;6.874;2024-02-15T00:37:43;20.40;;;13.17;;
14858;SDS011;7521;51.700;6.874;2024-02-15T00:40:49;18.97;;;12.43;;
14858;SDS011;7521;51.700;6.874;2024-02-15T00:43:54;16.48;;;11.70;;
14858;SDS011;7521;51.700;6.874;2024-02-15T00:46:59;16.00;;;12.23;;
14858;SDS011;7521;51.700;6.874;2024-02-15T00:50:05;19.08;;;11.60;;
14858;SDS011;7521;51.700;6.874;2024-02-15T00:53:10;19.13;;;12.43;;
14858;SDS011;7521;51.700;6.874;2024-02-15T00:56:15;16.92;;;12.52;;
14858;SDS011;7521;51.700;6.874;2024-02-15T00:59:20;18.48;;;12.15;;
14858;SDS011;7521;51.700;6.874;2024-02-15T01:02:26;18.97;;;12.63;;
14858;SDS011;7521;51.700;6.874;2024-02-15T01:05:32;15.97;;;12.00;;
14858;SDS011;7521;51.700;6.874;2024-02-15T01:08:39;17.63;;;12.30;;
14858;SDS011;7521;51.700;6.874;2024-02-15T01:11:44;16.63;;;11.07;;
14858;SDS011;7521;51.700;6.874;2024-02-15T01:14:49;17.53;;;11.87;;
14858;SDS011;7521;51.700;6.874;2024-02-15T01:17:55;21.53;;;11.80;;
14858;SDS011;7521;51.700;6.874;2024-02-15T01:21:00;14.23;;;11.57;;
14858;SDS011;7521;51.700;6.874;2024-02-15T01:24:07;15.47;;;11.33;;
14858;SDS011;7521;51.700;6.874;2024-02-15T01:27:12;18.95;;;11.35;;
14858;SDS011;7521;51.700;6.874;2024-02-15T01:30:17;14.27;;;10.93;;
14858;SDS011;7521;51.700;6.874;2024-02-15T01:33:22;18.83;;;10.57;;
14858;SDS011;7521;51.700;6.874;2024-02-15T01:36:27;21.50;;;11.03;;
14858;SDS011;7521;51.700;6.874;2024-02-15T01:39:32;16.95;;;9.88;;
14858;SDS011;7521;51.700;6.874;2024-02-15T01:42:38;16.53;;;11.23;;
14858;SDS011;7521;51.700;6.874;2024-02-15T01:45:43;14.53;;;10.63;;
14858;SDS011;7521;51.700;6.874;2024-02-15T01:48:49;15.70;;;11.47;;
14858;SDS011;7521;51.700;6.874;2024-02-15T01:51:54;15.83;;;10.43;;
14858;SDS011;7521;51.700;6.874;2024-02-15T01:55:02;14.33;;;10.13;;
14858;SDS011;7521;51.700;6.874;2024-02-15T01:58:12;18.90;;;10.53;;
14858;SDS011;7521;51.700;6.874;2024-02-15T02:01:17;17.23;;;10.87;;
14858;SDS011;7521;51.700;6.874;2024-02-15T02:04:22;18.07;;;11.37;;
14858;SDS011;7521;51.700;6.874;2024-02-15T02:07:28;18.17;;;10.40;;
14858;SDS011;7521;51.700;6.874;2024-02-15T02:10:33;17.53;;;10.70;;
14858;SDS011;7521;51.700;6.874;2024-02-15T02:13:38;19.40;;;11.37;;
14858;SDS011;7521;51.700;6.874;2024-02-15T02:16:43;16.35;;;10.27;;
14858;SDS011;7521;51.700;6.874;2024-02-15T02:19:51;15.87;;;11.07;;
14858;SDS011;7521;51.700;6.874;2024-02-15T02:23:03;16.30;;;10.65;;
14858;SDS011;7521;51.700;6.874;2024-02-15T02:26:12;18.07;;;10.83;;
14858;SDS011;7521;51.700;6.874;2024-02-15T02:29:17;16.23;;;9.87;;
14858;SDS011;7521;51.700;6.874;2024-02-15T02:32:23;16.90;;;11.10;;
14858;SDS011;7521;51.700;6.874;2024-02-15T02:35:28;15.07;;;10.10;;
14858;SDS011;7521;51.700;6.874;2024-02-15T02:38:35;19.30;;;10.33;;
14858;SDS011;7521;51.700;6.874;2024-02-15T02:41:42;14.07;;;9.60;;
14858;SDS011;7521;51.700;6.874;2024-02-15T02:44:48;19.23;;;10.07;;
14858;SDS011;7521;51.700;6.874;2024-02-15T02:47:53;15.43;;;9.70;;
14858;SDS011;7521;51.700;6.874;2024-02-15T02:50:58;17.70;;;9.40;;
14858;SDS011;7521;51.700;6.874;2024-02-15T02:54:04;13.67;;;8.30;;
14858;SDS011;7521;51.700;6.874;2024-02-15T02:57:11;19.27;;;8.67;;
14858;SDS011;7521;51.700;6.874;2024-02-15T03:00:16;16.07;;;8.47;;
14858;SDS011;7521;51.700;6.874;2024-02-15T03:03:22;15.77;;;7.73;;
14858;SDS011;7521;51.700;6.874;2024-02-15T03:06:27;13.87;;;7.93;;
14858;SDS011;7521;51.700;6.874;2024-02-15T03:09:33;17.65;;;8.65;;
14858;SDS011;7521;51.700;6.874;2024-02-15T03:12:39;20.33;;;9.43;;
14858;SDS011;7521;51.700;6.874;2024-02-15T03:15:47;16.37;;;8.90;;
14858;SDS011;7521;51.700;6.874;2024-02-15T03:18:52;14.83;;;8.40;;
14858;SDS011;7521;51.700;6.874;2024-02-15T03:21:57;13.47;;;8.07;;
14858;SDS011;7521;51.700;6.874;2024-02-15T03:25:03;17.52;;;8.80;;
14858;SDS011;7521;51.700;6.874;2024-02-15T03:28:12;18.43;;;9.53;;
14858;SDS011;7521;51.700;6.874;2024-02-15T03:31:17;15.37;;;8.07;;
14858;SDS011;7521;51.700;6.874;2024-02-15T03:34:23;20.87;;;9.43;;
14858;SDS011;7521;51.700;6.874;2024-02-15T03:37:29;12.10;;;7.97;;
14858;SDS011;7521;51.700;6.874;2024-02-15T03:40:34;19.58;;;8.52;;
14858;SDS011;7521;51.700;6.874;2024-02-15T03:43:39;14.93;;;7.90;;
14858;SDS011;7521;51.700;6.874;2024-02-15T03:46:44;16.97;;;8.50;;
14858;SDS011;7521;51.700;6.874;2024-02-15T03:49:55;17.03;;;8.77;;
14858;SDS011;7521;51.700;6.874;2024-02-15T03:53:02;12.43;;;7.57;;
14858;SDS011;7521;51.700;6.874;2024-02-15T03:56:07;15.30;;;8.50;;
14858;SDS011;7521;51.700;6.874;2024-02-15T03:59:13;17.17;;;9.20;;
14858;SDS011;7521;51.700;6.874;2024-02-15T04:02:19;18.10;;;7.80;;
14858;SDS011;7521;51.700;6.874;2024-02-15T04:05:24;15.93;;;8.03;;
14858;SDS011;7521;51.700;6.874;2024-02-15T04:08:29;17.23;;;8.23;;
14858;SDS011;7521;51.700;6.874;2024-02-15T04:11:34;16.15;;;7.70;;
14858;SDS011;7521;51.700;6.874;2024-02-15T04:14:40;12.80;;;7.57;;
14858;SDS011;7521;51.700;6.874;2024-02-15T04:17:45;17.03;;;7.53;;
14858;SDS011;7521;51.700;6.874;2024-02-15T04:20:51;17.03;;;7.83;;
14858;SDS011;7521;51.700;6.874;2024-02-15T04:23:56;17.37;;;8.43;;
14858;SDS011;7521;51.700;6.874;2024-02-15T04:27:01;16.00;;;7.10;;
14858;SDS011;7521;51.700;6.874;2024-02-15T04:30:07;14.13;;;7.43;;
14858;SDS011;7521;51.700;6.874;2024-02-15T04:33:12;13.93;;;7.37;;
14858;SDS011;7521;51.700;6.874;2024-02-15T04:36:20;20.83;;;7.93;;
14858;SDS011;7521;51.700;6.874;2024-02-15T04:39:28;12.53;;;6.77;;
14858;SDS011;7521;51.700;6.874;2024-02-15T04:42:36;15.47;;;7.50;;
14858;SDS011;7521;51.700;6.874;2024-02-15T04:45:50;13.27;;;7.13;;
14858;SDS011;7521;51.700;6.874;2024-02-15T04:48:56;17.17;;;6.40;;
14858;SDS011;7521;51.700;6.874;2024-02-15T04:52:04;17.90;;;7.53;;
14858;SDS011;7521;51.700;6.874;2024-02-15T04:55:09;13.17;;;6.40;;
14858;SDS011;7521;51.700;6.874;2024-02-15T04:58:15;17.97;;;6.93;;
14858;SDS011;7521;51.700;6.874;2024-02-15T05:01:20;12.57;;;6.23;;
14858;SDS011;7521;51.700;6.874;2024-02-15T05:04:26;17.53;;;5.97;;
14858;SDS011;7521;51.700;6.874;2024-02-15T05:07:32;11.37;;;6.00;;
14858;SDS011;7521;51.700;6.874;2024-02-15T05:10:37;19.37;;;6.20;;
14858;SDS011;7521;51.700;6.874;2024-02-15T05:13:42;13.00;;;5.47;;
14858;SDS011;7521;51.700;6.874;2024-02-15T05:16:47;15.37;;;6.50;;
14858;SDS011;7521;51.700;6.874;2024-02-15T05:19:53;10.73;;;5.73;;
14858;SDS011;7521;51.700;6.874;2024-02-15T05:22:58;10.03;;;5.17;;
14858;SDS011;7521;51.700;6.874;2024-02-15T05:26:04;13.55;;;5.75;;
14858;SDS011;7521;51.700;6.874;2024-02-15T05:29:10;14.83;;;5.90;;
14858;SDS011;7521;51.700;6.874;2024-02-15T05:32:16;14.87;;;5.43;;
14858;SDS011;7521;51.700;6.874;2024-02-15T05:35:23;13.57;;;4.80;;
14858;SDS011;7521;51.700;6.874;2024-02-15T05:38:29;9.97;;;4.77;;
14858;SDS011;7521;51.700;6.874;2024-02-15T05:41:34;12.40;;;4.80;;
14858;SDS011;7521;51.700;6.874;2024-02-15T05:44:39;12.33;;;4.80;;
14858;SDS011;7521;51.700;6.874;2024-02-15T05:47:47;14.50;;;4.43;;
14858;SDS011;7521;51.700;6.874;2024-02-15T05:50:52;12.43;;;4.77;;
14858;SDS011;7521;51.700;6.874;2024-02-15T05:53:59;16.47;;;4.13;;
14858;SDS011;7521;51.700;6.874;2024-02-15T05:57:04;8.90;;;4.37;;
14858;SDS011;7521;51.700;6.874;2024-02-15T06:00:10;11.30;;;4.50;;
14858;SDS011;7521;51.700;6.874;2024-02-15T06:03:16;8.10;;;3.97;;
14858;SDS011;7521;51.700;6.874;2024-02-15T06:06:21;11.30;;;4.30;;
14858;SDS011;7521;51.700;6.874;2024-02-15T06:09:27;12.10;;;3.83;;
14858;SDS011;7521;51.700;6.874;2024-02-15T06:12:35;11.60;;;4.23;;
14858;SDS011;7521;51.700;6.874;2024-02-15T06:15:40;8.60;;;3.60;;
14858;SDS011;7521;51.700;6.874;2024-02-15T06:18:46;9.40;;;4.50;;
14858;SDS011;7521;51.700;6.874;2024-02-15T06:21:52;9.13;;;4.10;;
14858;SDS011;7521;51.700;6.874;2024-02-15T06:24:58;12.40;;;3.83;;
14858;SDS011;7521;51.700;6.874;2024-02-15T06:28:03;11.87;;;4.43;;
14858;SDS011;7521;51.700;6.874;2024-02-15T06:31:18;9.87;;;4.03;;
14858;SDS011;7521;51.700;6.874;2024-02-15T06:34:42;14.27;;;4.63;;
14858;SDS011;7521;51.700;6.874;2024-02-15T06:38:07;11.07;;;4.70;;
14858;SDS011;7521;51.700;6.874;2024-02-15T06:41:31;11.37;;;4.63;;
14858;SDS011;7521;51.700;6.874;2024-02-15T06:44:36;14.73;;;5.32;;
14858;SDS011;7521;51.700;6.874;2024-02-15T06:47:43;11.37;;;4.90;;
14858;SDS011;7521;51.700;6.874;2024-02-15T06:50:49;7.97;;;4.93;;
14858;SDS011;7521;51.700;6.874;2024-02-15T06:53:54;14.47;;;5.37;;
14858;SDS011;7521;51.700;6.874;2024-02-15T06:57:01;9.97;;;5.17;;
14858;SDS011;7521;51.700;6.874;2024-02-15T07:00:08;9.40;;;4.57;;
14858;SDS011;7521;51.700;6.874;2024-02-15T07:03:14;8.50;;;4.50;;
14858;SDS011;7521;51.700;6.874;2024-02-15T07:06:21;10.87;;;4.63;;
14858;SDS011;7521;51.700;6.874;2024-02-15T07:09:26;9.17;;;4.10;;
14858;SDS011;7521;51.700;6.874;2024-02-15T07:12:32;9.87;;;4.50;;
14858;SDS011;7521;51.700;6.874;2024-02-15T07:15:37;9.07;;;4.63;;
14858;SDS011;7521;51.700;6.874;2024-02-15T07:18:43;11.50;;;4.33;;
14858;SDS011;7521;51.700;6.874;2024-02-15T07:21:48;9.18;;;4.00;;
14858;SDS011;7521;51.700;6.874;2024-02-15T07:24:53;8.27;;;3.80;;
14858;SDS011;7521;51.700;6.874;2024-02-15T07:27:59;11.18;;;3.90;;
14858;SDS011;7521;51.700;6.874;2024-02-15T07:31:04;5.90;;;3.97;;
14858;SDS011;7521;51.700;6.874;2024-02-15T07:34:09;6.83;;;3.17;;
14858;SDS011;7521;51.700;6.874;2024-02-15T07:37:15;9.37;;;3.43;;
14858;SDS011;7521;51.700;6.874;2024-02-15T07:40:21;9.73;;;4.00;;
14858;SDS011;7521;51.700;6.874;2024-02-15T07:43:27;8.33;;;3.57;;
14858;SDS011;7521;51.700;6.874;2024-02-15T07:46:32;11.30;;;3.83;;
14858;SDS011;7521;51.700;6.874;2024-02-15T07:49:39;10.53;;;3.60;;
14858;SDS011;7521;51.700;6.874;2024-02-15T07:52:47;7.30;;;3.57;;
14858;SDS011;7521;51.700;6.874;2024-02-15T07:55:53;8.93;;;3.40;;
14858;SDS011;7521;51.700;6.874;2024-02-15T07:58:58;8.20;;;3.50;;
14858;SDS011;7521;51.700;6.874;2024-02-15T08:02:03;12.93;;;3.95;;
14858;SDS011;7521;51.700;6.874;2024-02-15T08:05:12;8.57;;;3.20;;
14858;SDS011;7521;51.700;6.874;2024-02-15T08:08:17;6.13;;;3.70;;
14858;SDS011;7521;51.700;6.874;2024-02-15T08:11:23;9.43;;;3.40;;
14858;SDS011;7521;51.700;6.874;2024-02-15T08:14:28;9.67;;;3.63;;
14858;SDS011;7521;51.700;6.874;2024-02-15T08:17:34;7.40;;;3.73;;
14858;SDS011;7521;51.700;6.874;2024-02-15T08:20:40;7.47;;;3.90;;
14858;SDS011;7521;51.700;6.874;2024-02-15T08:23:45;9.23;;;3.88;;
14858;SDS011;7521;51.700;6.874;2024-02-15T08:26:50;8.40;;;3.78;;
14858;SDS011;7521;51.700;6.874;2024-02-15T08:29:57;8.33;;;3.50;;
14858;SDS011;7521;51.700;6.874;2024-02-15T08:33:02;9.35;;;3.85;;
14858;SDS011;7521;51.700;6.874;2024-02-15T08:36:09;9.77;;;3.90;;
14858;SDS011;7521;51.700;6.874;2024-02-15T08:39:15;6.53;;;4.00;;
14858;SDS011;7521;51.700;6.874;2024-02-15T08:42:21;9.87;;;3.90;;
14858;SDS011;7521;51.700;6.874;2024-02-15T08:45:27;8.23;;;3.43;;
14858;SDS011;7521;51.700;6.874;2024-02-15T08:48:32;7.82;;;3.70;;
14858;SDS011;7521;51.700;6.874;2024-02-15T08:51:38;7.53;;;3.97;;
14858;SDS011;7521;51.700;6.874;2024-02-15T08:54:43;12.98;;;4.03;;
14858;SDS011;7521;51.700;6.874;2024-02-15T08:57:48;8.33;;;3.83;;
14858;SDS011;7521;51.700;6.874;2024-02-15T09:00:54;12.95;;;4.13;;
14858;SDS011;7521;51.700;6.874;2024-02-15T09:03:59;8.20;;;3.80;;
14858;SDS011;7521;51.700;6.874;2024-02-15T09:07:04;12.82;;;4.20;;
14858;SDS011;7521;51.700;6.874;2024-02-15T09:10:10;8.37;;;3.90;;
14858;SDS011;7521;51.700;6.874;2024-02-15T09:13:15;10.60;;;3.90;;
14858;SDS011;7521;51.700;6.874;2024-02-15T09:16:20;11.57;;;4.10;;
14858;SDS011;7521;51.700;6.874;2024-02-15T09:19:27;8.40;;;3.57;;
14858;SDS011;7521;51.700;6.874;2024-02-15T09:22:32;5.43;;;3.30;;
14858;SDS011;7521;51.700;6.874;2024-02-15T09:25:37;6.97;;;2.93;;
14858;SDS011;7521;51.700;6.874;2024-02-15T09:28:43;8.43;;;3.00;;
14858;SDS011;7521;51.700;6.874;2024-02-15T09:31:48;5.70;;;2.80;;
14858;SDS011;7521;51.700;6.874;2024-02-15T09:34:53;7.65;;;3.08;;
14858;SDS011;7521;51.700;6.874;2024-02-15T09:37:58;6.18;;;2.60;;
14858;SDS011;7521;51.700;6.874;2024-02-15T09:41:04;8.33;;;3.00;;
14858;SDS011;7521;51.700;6.874;2024-02-15T09:44:12;5.67;;;3.00;;
14858;SDS011;7521;51.700;6.874;2024-02-15T09:47:18;7.03;;;2.73;;
14858;SDS011;7521;51.700;6.874;2024-02-15T09:50:24;9.57;;;2.63;;
14858;SDS011;7521;51.700;6.874;2024-02-15T09:53:30;6.77;;;2.60;;
14858;SDS011;7521;51.700;6.874;2024-02-15T09:56:35;9.13;;;2.60;;
14858;SDS011;7521;51.700;6.874;2024-02-15T09:59:40;7.47;;;2.87;;
14858;SDS011;7521;51.700;6.874;2024-02-15T10:02:47;10.30;;;3.07;;
14858;SDS011;7521;51.700;6.874;2024-02-15T10:05:52;7.33;;;3.00;;
14858;SDS011;7521;51.700;6.874;2024-02-15T10:09:22;9.98;;;2.80;;
14858;SDS011;7521;51.700;6.874;2024-02-15T10:12:22;8.30;;;2.93;;
14858;SDS011;7521;51.700;6.874;2024-02-15T10:15:41;6.67;;;2.50;;
14858;SDS011;7521;51.700;6.874;2024-02-15T10:18:46;5.37;;;2.43;;
14858;SDS011;7521;51.700;6.874;2024-02-15T10:21:52;8.40;;;2.30;;
14858;SDS011;7521;51.700;6.874;2024-02-15T10:25:10;4.77;;;2.37;;
14858;SDS011;7521;51.700;6.874;2024-02-15T10:28:21;6.60;;;2.50;;
14858;SDS011;7521;51.700;6.874;2024-02-15T10:31:28;7.10;;;2.77;;
14858;SDS011;7521;51.700;6.874;2024-02-15T10:34:33;7.20;;;2.00;;
14858;SDS011;7521;51.700;6.874;2024-02-15T10:37:41;6.70;;;2.37;;
14858;SDS011;7521;51.700;6.874;2024-02-15T10:40:47;7.43;;;2.40;;
14858;SDS011;7521;51.700;6.874;2024-02-15T10:43:52;6.27;;;2.70;;
14858;SDS011;7521;51.700;6.874;2024-02-15T10:46:59;7.10;;;2.30;;
14858;SDS011;7521;51.700;6.874;2024-02-15T10:50:06;4.97;;;2.20;;
14858;SDS011;7521;51.700;6.874;2024-02-15T10:53:16;4.17;;;2.27;;
14858;SDS011;7521;51.700;6.874;2024-02-15T10:56:27;6.13;;;2.10;;
14858;SDS011;7521;51.700;6.874;2024-02-15T10:59:43;7.10;;;2.37;;
14858;SDS011;7521;51.700;6.874;2024-02-15T11:02:59;6.47;;;2.33;;
14858;SDS011;7521;51.700;6.874;2024-02-15T11:06:06;6.50;;;2.20;;
14858;SDS011;7521;51.700;6.874;2024-02-15T11:09:12;5.73;;;2.17;;
14858;SDS011;7521;51.700;6.874;2024-02-15T11:12:18;5.57;;;2.57;;
14858;SDS011;7521;51.700;6.874;2024-02-15T11:18:50;9.13;;;2.30;;
14858;SDS011;7521;51.700;6.874;2024-02-15T11:22:00;6.60;;;2.17;;
14858;SDS011;7521;51.700;6.874;2024-02-15T11:25:08;9.90;;;2.60;;
14858;SDS011;7521;51.700;6.874;2024-02-15T11:31:52;6.60;;;2.20;;
14858;SDS011;7521;51.700;6.874;2024-02-15T11:35:03;5.17;;;1.80;;
14858;SDS011;7521;51.700;6.874;2024-02-15T11:38:27;5.67;;;2.13;;
14858;SDS011;7521;51.700;6.874;2024-02-15T11:41:32;4.73;;;1.90;;
14858;SDS011;7521;51.700;6.874;2024-02-15T11:44:38;5.27;;;2.00;;
14858;SDS011;7521;51.700;6.874;2024-02-15T11:47:43;4.70;;;2.10;;
14858;SDS011;7521;51.700;6.874;2024-02-15T11:50:54;6.13;;;1.83;;
14858;SDS011;7521;51.700;6.874;2024-02-15T11:54:01;5.53;;;2.10;;
14858;SDS011;7521;51.700;6.874;2024-02-15T11:57:06;3.97;;;2.10;;
14858;SDS011;7521;51.700;6.874;2024-02-15T12:00:24;6.27;;;2.07;;
14858;SDS011;7521;51.700;6.874;2024-02-15T12:03:52;7.37;;;2.30;;
14858;SDS011;7521;51.700;6.874;2024-02-15T12:07:15;7.33;;;2.10;;
14858;SDS011;7521;51.700;6.874;2024-02-15T12:10:39;7.37;;;1.80;;
14858;SDS011;7521;51.700;6.874;2024-02-15T12:14:03;5.33;;;1.63;;
14858;SDS011;7521;51.700;6.874;2024-02-15T12:17:27;3.57;;;1.63;;
14858;SDS011;7521;51.700;6.874;2024-02-15T12:20:51;5.00;;;1.77;;
14858;SDS011;7521;51.700;6.874;2024-02-15T12:23:56;4.30;;;1.77;;
14858;SDS011;7521;51.700;6.874;2024-02-15T12:27:01;6.57;;;1.97;;
14858;SDS011;7521;51.700;6.874;2024-02-15T12:30:12;5.03;;;2.00;;
14858;SDS011;7521;51.700;6.874;2024-02-15T12:33:17;9.73;;;1.70;;
14858;SDS011;7521;51.700;6.874;2024-02-15T12:36:25;3.73;;;1.50;;
14858;SDS011;7521;51.700;6.874;2024-02-15T12:39:30;5.10;;;1.50;;
14858;SDS011;7521;51.700;6.874;2024-02-15T12:42:39;5.63;;;1.70;;
14858;SDS011;7521;51.700;6.874;2024-02-15T12:45:44;7.97;;;1.60;;
14858;SDS011;7521;51.700;6.874;2024-02-15T12:48:50;7.77;;;1.70;;
14858;SDS011;7521;51.700;6.874;2024-02-15T12:55:22;5.93;;;1.80;;
14858;SDS011;7521;51.700;6.874;2024-02-15T12:58:29;6.40;;;1.80;;
14858;SDS011;7521;51.700;6.874;2024-02-15T13:01:35;4.80;;;1.63;;
14858;SDS011;7521;51.700;6.874;2024-02-15T13:04:40;4.45;;;1.88;;
14858;SDS011;7521;51.700;6.874;2024-02-15T13:07:46;3.63;;;1.50;;
14858;SDS011;7521;51.700;6.874;2024-02-15T13:10:51;5.47;;;1.90;;
14858;SDS011;7521;51.700;6.874;2024-02-15T13:13:56;3.67;;;1.80;;
14858;SDS011;7521;51.700;6.874;2024-02-15T13:17:02;5.13;;;1.77;;
14858;SDS011;7521;51.700;6.874;2024-02-15T13:20:07;4.67;;;1.77;;
14858;SDS011;7521;51.700;6.874;2024-02-15T13:23:16;5.97;;;1.93;;
14858;SDS011;7521;51.700;6.874;2024-02-15T13:26:21;6.47;;;1.60;;
14858;SDS011;7521;51.700;6.874;2024-02-15T13:29:30;5.43;;;1.70;;
14858;SDS011;7521;51.700;6.874;2024-02-15T13:32:40;5.67;;;1.80;;
14858;SDS011;7521;51.700;6.874;2024-02-15T13:35:45;4.13;;;1.70;;
14858;SDS011;7521;51.700;6.874;2024-02-15T13:38:51;3.83;;;1.90;;
14858;SDS011;7521;51.700;6.874;2024-02-15T13:41:56;2.57;;;1.40;;
14858;SDS011;7521;51.700;6.874;2024-02-15T13:45:02;5.77;;;1.73;;
14858;SDS011;7521;51.700;6.874;2024-02-15T13:48:08;3.87;;;1.60;;
14858;SDS011;7521;51.700;6.874;2024-02-15T13:51:14;5.47;;;2.00;;
14858;SDS011;7521;51.700;6.874;2024-02-15T13:54:19;3.63;;;1.60;;
14858;SDS011;7521;51.700;6.874;2024-02-15T13:57:25;2.93;;;1.23;;
14858;SDS011;7521;51.700;6.874;2024-02-15T14:00:31;4.70;;;1.80;;
14858;SDS011;7521;51.700;6.874;2024-02-15T14:03:38;3.57;;;1.37;;
14858;SDS011;7521;51.700;6.874;2024-02-15T14:06:43;6.67;;;1.73;;
14858;SDS011;7521;51.700;6.874;2024-02-15T14:09:49;5.43;;;1.53;;
14858;SDS011;7521;51.700;6.874;2024-02-15T14:12:54;3.85;;;1.42;;
14858;SDS011;7521;51.700;6.874;2024-02-15T14:16:00;5.10;;;1.27;;
14858;SDS011;7521;51.700;6.874;2024-02-15T14:19:05;3.50;;;1.40;;
14858;SDS011;7521;51.700;6.874;2024-02-15T14:22:11;6.37;;;1.53;;
14858;SDS011;7521;51.700;6.874;2024-02-15T14:25:21;6.10;;;1.50;;
14858;SDS011;7521;51.700;6.874;2024-02-15T14:28:26;3.13;;;1.30;;
14858;SDS011;7521;51.700;6.874;2024-02-15T14:31:32;5.70;;;1.60;;
14858;SDS011;7521;51.700;6.874;2024-02-15T14:34:56;6.67;;;1.60;;
14858;SDS011;7521;51.700;6.874;2024-02-15T14:38:02;2.83;;;1.13;;
14858;SDS011;7521;51.700;6.874;2024-02-15T14:41:10;6.37;;;1.50;;
14858;SDS011;7521;51.700;6.874;2024-02-15T14:44:16;4.93;;;1.33;;
14858;SDS011;7521;51.700;6.874;2024-02-15T14:47:21;4.75;;;1.95;;
14858;SDS011;7521;51.700;6.874;2024-02-15T14:50:27;4.00;;;1.30;;
14858;SDS011;7521;51.700;6.874;2024-02-15T14:53:32;4.40;;;1.30;;
14858;SDS011;7521;51.700;6.874;2024-02-15T14:56:38;2.43;;;1.00;;
14858;SDS011;7521;51.700;6.874;2024-02-15T14:59:45;2.97;;;1.30;;
14858;SDS011;7521;51.700;6.874;2024-02-15T15:02:50;2.43;;;1.17;;
14858;SDS011;7521;51.700;6.874;2024-02-15T15:05:55;3.30;;;1.10;;
14858;SDS011;7521;51.700;6.874;2024-02-15T15:09:19;3.77;;;1.30;;
14858;SDS011;7521;51.700;6.874;2024-02-15T15:12:42;2.87;;;1.30;;
14858;SDS011;7521;51.700;6.874;2024-02-15T15:15:50;4.27;;;1.43;;
14858;SDS011;7521;51.700;6.874;2024-02-15T15:18:56;3.63;;;1.23;;
14858;SDS011;7521;51.700;6.874;2024-02-15T15:22:01;4.87;;;1.10;;
14858;SDS011;7521;51.700;6.874;2024-02-15T15:25:10;2.93;;;1.30;;
14858;SDS011;7521;51.700;6.874;2024-02-15T15:28:15;3.40;;;1.00;;
14858;SDS011;7521;51.700;6.874;2024-02-15T15:31:20;2.15;;;1.20;;
14858;SDS011;7521;51.700;6.874;2024-02-15T15:34:25;3.40;;;1.20;;
14858;SDS011;7521;51.700;6.874;2024-02-15T15:37:31;4.13;;;1.05;;
14858;SDS011;7521;51.700;6.874;2024-02-15T15:40:36;3.37;;;1.30;;
14858;SDS011;7521;51.700;6.874;2024-02-15T15:43:41;5.77;;;1.50;;
14858;SDS011;7521;51.700;6.874;2024-02-15T15:46:50;3.30;;;1.17;;
14858;SDS011;7521;51.700;6.874;2024-02-15T15:49:55;4.13;;;1.13;;
14858;SDS011;7521;51.700;6.874;2024-02-15T15:53:03;3.33;;;1.03;;
14858;SDS011;7521;51.700;6.874;2024-02-15T15:56:09;2.70;;;1.10;;
14858;SDS011;7521;51.700;6.874;2024-02-15T15:59:14;4.40;;;1.30;;
14858;SDS011;7521;51.700;6.874;2024-02-15T16:02:20;4.38;;;1.30;;
14858;SDS011;7521;51.700;6.874;2024-02-15T16:05:26;4.43;;;1.17;;
14858;SDS011;7521;51.700;6.874;2024-02-15T16:08:32;3.07;;;1.27;;
14858;SDS011;7521;51.700;6.874;2024-02-15T16:11:37;3.45;;;1.08;;
14858;SDS011;7521;51.700;6.874;2024-02-15T16:14:43;4.23;;;1.30;;
14858;SDS011;7521;51.700;6.874;2024-02-15T16:17:49;3.57;;;1.40;;
14858;SDS011;7521;51.700;6.874;2024-02-15T16:20:54;3.70;;;1.42;;
14858;SDS011;7521;51.700;6.874;2024-02-15T16:23:59;5.47;;;1.50;;
14858;SDS011;7521;51.700;6.874;2024-02-15T16:27:05;2.57;;;1.17;;
14858;SDS011;7521;51.700;6.874;2024-02-15T16:30:11;3.33;;;1.33;;
14858;SDS011;7521;51.700;6.874;2024-02-15T16:33:18;5.60;;;1.60;;
14858;SDS011;7521;51.700;6.874;2024-02-15T16:36:23;3.33;;;1.40;;
14858;SDS011;7521;51.700;6.874;2024-02-15T16:39:29;2.60;;;1.30;;
14858;SDS011;7521;51.700;6.874;2024-02-15T16:42:35;2.87;;;1.20;;
14858;SDS011;7521;51.700;6.874;2024-02-15T16:45:41;2.07;;;1.13;;
14858;SDS011;7521;51.700;6.874;2024-02-15T16:48:47;3.80;;;1.40;;
14858;SDS011;7521;51.700;6.874;2024-02-15T16:51:52;2.77;;;1.40;;
14858;SDS011;7521;51.700;6.874;2024-02-15T16:54:57;5.20;;;1.63;;
14858;SDS011;7521;51.700;6.874;2024-02-15T16:58:04;4.83;;;1.60;;
14858;SDS011;7521;51.700;6.874;2024-02-15T17:01:12;4.40;;;1.60;;
14858;SDS011;7521;51.700;6.874;2024-02-15T17:04:17;4.65;;;1.40;;
14858;SDS011;7521;51.700;6.874;2024-02-15T17:07:23;4.10;;;1.27;;
14858;SDS011;7521;51.700;6.874;2024-02-15T17:10:28;6.32;;;1.70;;
14858;SDS011;7521;51.700;6.874;2024-02-15T17:13:33;4.93;;;1.70;;
14858;SDS011;7521;51.700;6.874;2024-02-15T17:16:41;3.27;;;1.23;;
14858;SDS011;7521;51.700;6.874;2024-02-15T17:19:49;4.77;;;1.33;;
14858;SDS011;7521;51.700;6.874;2024-02-15T17:22:55;3.47;;;1.50;;
14858;SDS011;7521;51.700;6.874;2024-02-15T17:26:03;4.40;;;1.30;;
14858;SDS011;7521;51.700;6.874;2024-02-15T17:29:08;3.10;;;1.20;;
14858;SDS011;7521;51.700;6.874;2024-02-15T17:32:15;4.70;;;1.77;;
14858;SDS011;7521;51.700;6.874;2024-02-15T17:35:21;4.35;;;1.38;;
14858;SDS011;7521;51.700;6.874;2024-02-15T17:38:26;7.50;;;1.70;;
14858;SDS011;7521;51.700;6.874;2024-02-15T17:41:31;3.80;;;1.43;;
14858;SDS011;7521;51.700;6.874;2024-02-15T17:44:36;6.25;;;1.67;;
14858;SDS011;7521;51.700;6.874;2024-02-15T17:47:42;4.50;;;2.67;;
14858;SDS011;7521;51.700;6.874;2024-02-15T17:50:49;12.03;;;8.17;;
14858;SDS011;7521;51.700;6.874;2024-02-15T17:53:55;8.57;;;5.93;;
14858;SDS011;7521;51.700;6.874;2024-02-15T17:57:00;6.17;;;3.20;;
14858;SDS011;7521;51.700;6.874;2024-02-15T18:00:06;6.00;;;2.27;;
14858;SDS011;7521;51.700;6.874;2024-02-15T18:03:12;5.40;;;2.57;;
14858;SDS011;7521;51.700;6.874;2024-02-15T18:06:17;4.07;;;2.17;;
14858;SDS011;7521;51.700;6.874;2024-02-15T18:09:22;4.22;;;2.25;;
14858;SDS011;7521;51.700;6.874;2024-02-15T18:12:27;4.00;;;2.10;;
14858;SDS011;7521;51.700;6.874;2024-02-15T18:15:33;5.30;;;2.07;;
14858;SDS011;7521;51.700;6.874;2024-02-15T18:18:44;4.20;;;2.20;;
14858;SDS011;7521;51.700;6.874;2024-02-15T18:21:49;3.90;;;2.00;;
14858;SDS011;7521;51.700;6.874;2024-02-15T18:24:55;7.57;;;2.50;;
14858;SDS011;7521;51.700;6.874;2024-02-15T18:28:00;3.90;;;2.13;;
14858;SDS011;7521;51.700;6.874;2024-02-15T18:31:06;3.70;;;2.70;;
14858;SDS011;7521;51.700;6.874;2024-02-15T18:34:14;2.97;;;2.10;;
14858;SDS011;7521;51.700;6.874;2024-02-15T18:37:19;5.60;;;1.77;;
14858;SDS011;7521;51.700;6.874;2024-02-15T18:40:25;4.55;;;1.75;;
14858;SDS011;7521;51.700;6.874;2024-02-15T18:43:32;3.47;;;1.50;;
14858;SDS011;7521;51.700;6.874;2024-02-15T18:46:37;7.63;;;6.83;;
14858;SDS011;7521;51.700;6.874;2024-02-15T18:49:43;8.33;;;4.20;;
14858;SDS011;7521;51.700;6.874;2024-02-15T18:52:48;4.88;;;2.90;;
14858;SDS011;7521;51.700;6.874;2024-02-15T18:55:53;4.40;;;2.87;;
14858;SDS011;7521;51.700;6.874;2024-02-15T18:59:00;6.27;;;3.50;;
14858;SDS011;7521;51.700;6.874;2024-02-15T19:02:10;5.03;;;3.33;;
14858;SDS011;7521;51.700;6.874;2024-02-15T19:05:17;6.40;;;2.63;;